sensor_id;sensor_type;location;lat;lon;timestamp;temperature;humidity
38398;DHT22;24179;52.094;4.408;2022-07-23T00:01:29;15.00;99.90
38398;DHT22;24179;52.094;4.408;2022-07-23T00:04:29;15.00;99.90
38398;DHT22;24179;52.094;4.408;2022-07-23T00:07:30;15.10;99.90
38398;DHT22;24179;52.094;4.408;2022-07-23T00:10:30;15.10;99.90
38398;DHT22;24179;52.094;4.408;2022-07-23T00:13:31;15.10;99.90
38398;DHT22;24179;52.094;4.408;2022-07-23T00:16:32;15.10;99.90
38398;DHT22;24179;52.094;4.408;2022-07-23T00:19:32;15.10;99.90
38398;DHT22;24179;52.094;4.408;2022-07-23T00:22:33;15.10;99.90
38398;DHT22;24179;52.094;4.408;2022-07-23T00:25:33;15.00;99.90
38398;DHT22;24179;52.094;4.408;2022-07-23T00:28:34;14.90;99.90
38398;DHT22;24179;52.094;4.408;2022-07-23T00:31:34;14.90;99.90
38398;DHT22;24179;52.094;4.408;2022-07-23T00:34:35;14.80;99.90
38398;DHT22;24179;52.094;4.408;2022-07-23T00:37:36;14.80;99.90
38398;DHT22;24179;52.094;4.408;2022-07-23T00:40:37;14.60;99.90
38398;DHT22;24179;52.094;4.408;2022-07-23T00:43:38;14.60;99.90
38398;DHT22;24179;52.094;4.408;2022-07-23T00:46:44;14.40;99.90
38398;DHT22;24179;52.094;4.408;2022-07-23T00:49:45;14.40;99.90
38398;DHT22;24179;52.094;4.408;2022-07-23T00:52:45;14.30;99.90
38398;DHT22;24179;52.094;4.408;2022-07-23T00:55:46;14.20;99.90
38398;DHT22;24179;52.094;4.408;2022-07-23T00:58:47;14.20;99.90
38398;DHT22;24179;52.094;4.408;2022-07-23T01:01:49;14.20;99.90
38398;DHT22;24179;52.094;4.408;2022-07-23T01:04:49;14.10;99.90
38398;DHT22;24179;52.094;4.408;2022-07-23T01:07:50;14.20;99.90
38398;DHT22;24179;52.094;4.408;2022-07-23T01:10:50;14.30;99.90
38398;DHT22;24179;52.094;4.408;2022-07-23T01:13:51;14.40;99.90
38398;DHT22;24179;52.094;4.408;2022-07-23T01:16:52;14.40;99.90
38398;DHT22;24179;52.094;4.408;2022-07-23T01:19:52;14.50;99.90
38398;DHT22;24179;52.094;4.408;2022-07-23T01:22:53;14.40;99.90
38398;DHT22;24179;52.094;4.408;2022-07-23T01:25:54;14.40;99.90
38398;DHT22;24179;52.094;4.408;2022-07-23T01:28:55;14.30;99.90
38398;DHT22;24179;52.094;4.408;2022-07-23T01:31:55;14.20;99.90
38398;DHT22;24179;52.094;4.408;2022-07-23T01:34:56;14.10;99.90
38398;DHT22;24179;52.094;4.408;2022-07-23T01:37:56;14.00;99.90
38398;DHT22;24179;52.094;4.408;2022-07-23T01:40:57;13.90;99.90
38398;DHT22;24179;52.094;4.408;2022-07-23T01:43:57;13.90;99.90
38398;DHT22;24179;52.094;4.408;2022-07-23T01:46:58;13.80;99.90
38398;DHT22;24179;52.094;4.408;2022-07-23T01:49:58;13.70;99.90
38398;DHT22;24179;52.094;4.408;2022-07-23T01:52:58;13.70;99.90
38398;DHT22;24179;52.094;4.408;2022-07-23T01:55:59;13.60;99.90
38398;DHT22;24179;52.094;4.408;2022-07-23T01:59:00;13.50;99.90
38398;DHT22;24179;52.094;4.408;2022-07-23T02:02:01;13.50;99.90
38398;DHT22;24179;52.094;4.408;2022-07-23T02:05:03;13.50;99.90
38398;DHT22;24179;52.094;4.408;2022-07-23T02:08:04;13.40;99.90
38398;DHT22;24179;52.094;4.408;2022-07-23T02:11:05;13.30;99.90
38398;DHT22;24179;52.094;4.408;2022-07-23T02:14:05;13.30;99.90
38398;DHT22;24179;52.094;4.408;2022-07-23T02:17:06;13.30;99.90
38398;DHT22;24179;52.094;4.408;2022-07-23T02:20:07;13.30;99.90
38398;DHT22;24179;52.094;4.408;2022-07-23T02:23:08;13.30;99.90
38398;DHT22;24179;52.094;4.408;2022-07-23T02:26:08;13.30;99.90
38398;DHT22;24179;52.094;4.408;2022-07-23T02:29:09;13.40;99.90
38398;DHT22;24179;52.094;4.408;2022-07-23T02:32:09;13.30;99.90
38398;DHT22;24179;52.094;4.408;2022-07-23T02:35:10;13.40;99.90
38398;DHT22;24179;52.094;4.408;2022-07-23T02:38:10;13.40;99.90
38398;DHT22;24179;52.094;4.408;2022-07-23T02:41:11;13.30;99.90
38398;DHT22;24179;52.094;4.408;2022-07-23T02:44:11;13.30;99.90
38398;DHT22;24179;52.094;4.408;2022-07-23T02:47:12;13.30;99.90
38398;DHT22;24179;52.094;4.408;2022-07-23T02:50:12;13.30;99.90
38398;DHT22;24179;52.094;4.408;2022-07-23T02:53:13;13.30;99.90
38398;DHT22;24179;52.094;4.408;2022-07-23T02:56:13;13.40;99.90
38398;DHT22;24179;52.094;4.408;2022-07-23T02:59:14;13.50;99.90
38398;DHT22;24179;52.094;4.408;2022-07-23T03:02:15;13.50;99.90
38398;DHT22;24179;52.094;4.408;2022-07-23T03:05:15;13.60;99.90
38398;DHT22;24179;52.094;4.408;2022-07-23T03:08:15;13.60;99.90
38398;DHT22;24179;52.094;4.408;2022-07-23T03:11:16;13.60;99.90
38398;DHT22;24179;52.094;4.408;2022-07-23T03:14:17;13.60;99.90
38398;DHT22;24179;52.094;4.408;2022-07-23T03:17:17;13.50;99.90
38398;DHT22;24179;52.094;4.408;2022-07-23T03:20:18;13.40;99.90
38398;DHT22;24179;52.094;4.408;2022-07-23T03:23:18;13.40;99.90
38398;DHT22;24179;52.094;4.408;2022-07-23T03:26:19;13.40;99.90
38398;DHT22;24179;52.094;4.408;2022-07-23T03:29:19;13.20;99.90
38398;DHT22;24179;52.094;4.408;2022-07-23T03:32:20;13.20;99.90
38398;DHT22;24179;52.094;4.408;2022-07-23T03:35:20;13.20;99.90
38398;DHT22;24179;52.094;4.408;2022-07-23T03:38:21;13.20;99.90
38398;DHT22;24179;52.094;4.408;2022-07-23T03:41:21;13.10;99.90
38398;DHT22;24179;52.094;4.408;2022-07-23T03:44:22;13.00;99.90
38398;DHT22;24179;52.094;4.408;2022-07-23T03:47:22;13.00;99.90
38398;DHT22;24179;52.094;4.408;2022-07-23T03:50:23;13.00;99.90
38398;DHT22;24179;52.094;4.408;2022-07-23T03:53:24;13.10;99.90
38398;DHT22;24179;52.094;4.408;2022-07-23T03:56:24;13.10;99.90
38398;DHT22;24179;52.094;4.408;2022-07-23T03:59:26;13.20;99.90
38398;DHT22;24179;52.094;4.408;2022-07-23T04:02:26;13.30;99.90
38398;DHT22;24179;52.094;4.408;2022-07-23T04:05:27;13.40;99.90
38398;DHT22;24179;52.094;4.408;2022-07-23T04:08:27;13.50;99.90
38398;DHT22;24179;52.094;4.408;2022-07-23T04:11:28;13.50;99.90
38398;DHT22;24179;52.094;4.408;2022-07-23T04:14:28;13.50;99.90
38398;DHT22;24179;52.094;4.408;2022-07-23T04:17:29;13.60;99.90
38398;DHT22;24179;52.094;4.408;2022-07-23T04:20:30;13.70;99.90
38398;DHT22;24179;52.094;4.408;2022-07-23T04:23:30;13.70;99.90
38398;DHT22;24179;52.094;4.408;2022-07-23T04:26:30;13.80;99.90
38398;DHT22;24179;52.094;4.408;2022-07-23T04:29:31;13.90;99.90
38398;DHT22;24179;52.094;4.408;2022-07-23T04:32:32;14.00;99.90
38398;DHT22;24179;52.094;4.408;2022-07-23T04:35:33;14.00;99.90
38398;DHT22;24179;52.094;4.408;2022-07-23T04:38:33;14.00;99.90
38398;DHT22;24179;52.094;4.408;2022-07-23T04:41:34;14.00;99.90
38398;DHT22;24179;52.094;4.408;2022-07-23T04:44:34;13.90;99.90
38398;DHT22;24179;52.094;4.408;2022-07-23T04:47:35;13.80;99.90
38398;DHT22;24179;52.094;4.408;2022-07-23T04:50:35;13.80;99.90
38398;DHT22;24179;52.094;4.408;2022-07-23T04:53:39;13.80;99.90
38398;DHT22;24179;52.094;4.408;2022-07-23T04:56:39;13.80;99.90
38398;DHT22;24179;52.094;4.408;2022-07-23T04:59:40;13.80;99.90
38398;DHT22;24179;52.094;4.408;2022-07-23T05:02:40;13.90;99.90
38398;DHT22;24179;52.094;4.408;2022-07-23T05:05:44;13.90;99.90
38398;DHT22;24179;52.094;4.408;2022-07-23T05:08:44;14.00;99.90
38398;DHT22;24179;52.094;4.408;2022-07-23T05:11:45;14.00;99.90
38398;DHT22;24179;52.094;4.408;2022-07-23T05:14:45;14.00;99.90
38398;DHT22;24179;52.094;4.408;2022-07-23T05:17:46;14.10;99.90
38398;DHT22;24179;52.094;4.408;2022-07-23T05:20:47;14.20;99.90
38398;DHT22;24179;52.094;4.408;2022-07-23T05:23:47;14.30;99.90
38398;DHT22;24179;52.094;4.408;2022-07-23T05:26:48;14.40;99.90
38398;DHT22;24179;52.094;4.408;2022-07-23T05:29:48;14.50;99.90
38398;DHT22;24179;52.094;4.408;2022-07-23T05:32:49;14.60;99.90
38398;DHT22;24179;52.094;4.408;2022-07-23T05:35:49;14.80;99.90
38398;DHT22;24179;52.094;4.408;2022-07-23T05:38:49;14.90;99.90
38398;DHT22;24179;52.094;4.408;2022-07-23T05:41:50;15.00;99.90
38398;DHT22;24179;52.094;4.408;2022-07-23T05:44:50;15.10;99.90
38398;DHT22;24179;52.094;4.408;2022-07-23T05:47:52;15.30;99.90
38398;DHT22;24179;52.094;4.408;2022-07-23T05:50:52;15.50;99.90
38398;DHT22;24179;52.094;4.408;2022-07-23T05:53:53;15.70;99.90
38398;DHT22;24179;52.094;4.408;2022-07-23T05:56:54;15.90;99.90
38398;DHT22;24179;52.094;4.408;2022-07-23T05:59:54;16.20;99.90
38398;DHT22;24179;52.094;4.408;2022-07-23T06:02:55;16.30;99.90
38398;DHT22;24179;52.094;4.408;2022-07-23T06:05:55;16.30;99.90
38398;DHT22;24179;52.094;4.408;2022-07-23T06:08:55;16.40;99.90
38398;DHT22;24179;52.094;4.408;2022-07-23T06:11:56;16.40;99.90
38398;DHT22;24179;52.094;4.408;2022-07-23T06:14:56;16.40;99.90
38398;DHT22;24179;52.094;4.408;2022-07-23T06:17:57;16.50;99.90
38398;DHT22;24179;52.094;4.408;2022-07-23T06:20:57;16.50;99.90
38398;DHT22;24179;52.094;4.408;2022-07-23T06:23:58;16.60;99.90
38398;DHT22;24179;52.094;4.408;2022-07-23T06:26:58;16.60;99.90
38398;DHT22;24179;52.094;4.408;2022-07-23T06:29:59;16.70;99.90
38398;DHT22;24179;52.094;4.408;2022-07-23T06:32:59;16.90;99.90
38398;DHT22;24179;52.094;4.408;2022-07-23T06:36:00;16.90;99.90
38398;DHT22;24179;52.094;4.408;2022-07-23T06:39:00;17.00;99.90
38398;DHT22;24179;52.094;4.408;2022-07-23T06:42:01;17.20;99.90
38398;DHT22;24179;52.094;4.408;2022-07-23T06:45:01;17.30;99.90
38398;DHT22;24179;52.094;4.408;2022-07-23T06:48:03;17.60;99.90
38398;DHT22;24179;52.094;4.408;2022-07-23T06:51:03;18.10;99.90
38398;DHT22;24179;52.094;4.408;2022-07-23T06:54:04;19.10;99.90
38398;DHT22;24179;52.094;4.408;2022-07-23T06:57:05;20.60;99.90
38398;DHT22;24179;52.094;4.408;2022-07-23T07:00:06;21.60;99.90
38398;DHT22;24179;52.094;4.408;2022-07-23T07:03:06;22.60;99.90
38398;DHT22;24179;52.094;4.408;2022-07-23T07:06:07;23.30;99.90
38398;DHT22;24179;52.094;4.408;2022-07-23T07:09:08;23.70;99.90
38398;DHT22;24179;52.094;4.408;2022-07-23T07:12:08;24.00;99.90
38398;DHT22;24179;52.094;4.408;2022-07-23T07:15:09;24.50;99.90
38398;DHT22;24179;52.094;4.408;2022-07-23T07:18:10;25.00;99.90
38398;DHT22;24179;52.094;4.408;2022-07-23T07:21:10;25.60;99.90
38398;DHT22;24179;52.094;4.408;2022-07-23T07:24:11;26.00;99.90
38398;DHT22;24179;52.094;4.408;2022-07-23T07:27:11;25.80;99.90
38398;DHT22;24179;52.094;4.408;2022-07-23T07:30:12;26.20;99.90
38398;DHT22;24179;52.094;4.408;2022-07-23T07:33:13;26.20;99.90
38398;DHT22;24179;52.094;4.408;2022-07-23T07:36:14;26.10;99.60
38398;DHT22;24179;52.094;4.408;2022-07-23T07:39:15;26.20;99.80
38398;DHT22;24179;52.094;4.408;2022-07-23T07:42:15;26.70;99.90
38398;DHT22;24179;52.094;4.408;2022-07-23T07:45:17;27.30;99.50
38398;DHT22;24179;52.094;4.408;2022-07-23T07:48:17;27.60;98.40
38398;DHT22;24179;52.094;4.408;2022-07-23T07:51:18;28.10;97.90
38398;DHT22;24179;52.094;4.408;2022-07-23T07:54:18;28.10;97.50
38398;DHT22;24179;52.094;4.408;2022-07-23T07:57:19;28.60;96.80
38398;DHT22;24179;52.094;4.408;2022-07-23T08:00:20;28.60;95.70
38398;DHT22;24179;52.094;4.408;2022-07-23T08:03:20;28.40;95.60
38398;DHT22;24179;52.094;4.408;2022-07-23T08:06:21;28.60;95.70
38398;DHT22;24179;52.094;4.408;2022-07-23T08:09:21;28.80;94.60
38398;DHT22;24179;52.094;4.408;2022-07-23T08:12:22;28.70;94.70
38398;DHT22;24179;52.094;4.408;2022-07-23T08:15:23;29.00;94.00
38398;DHT22;24179;52.094;4.408;2022-07-23T08:18:24;29.20;94.90
38398;DHT22;24179;52.094;4.408;2022-07-23T08:21:24;29.80;93.20
38398;DHT22;24179;52.094;4.408;2022-07-23T08:24:25;29.60;93.70
38398;DHT22;24179;52.094;4.408;2022-07-23T08:27:25;29.90;92.40
38398;DHT22;24179;52.094;4.408;2022-07-23T08:30:27;29.80;93.00
38398;DHT22;24179;52.094;4.408;2022-07-23T08:33:28;30.20;92.60
38398;DHT22;24179;52.094;4.408;2022-07-23T08:36:29;29.70;92.50
38398;DHT22;24179;52.094;4.408;2022-07-23T08:39:32;30.00;93.00
38398;DHT22;24179;52.094;4.408;2022-07-23T08:42:33;30.70;92.00
38398;DHT22;24179;52.094;4.408;2022-07-23T08:45:38;30.90;91.30
38398;DHT22;24179;52.094;4.408;2022-07-23T08:48:39;31.20;90.50
38398;DHT22;24179;52.094;4.408;2022-07-23T08:51:40;30.80;90.70
38398;DHT22;24179;52.094;4.408;2022-07-23T08:54:41;31.10;90.30
38398;DHT22;24179;52.094;4.408;2022-07-23T08:57:42;31.20;89.60
38398;DHT22;24179;52.094;4.408;2022-07-23T09:00:43;31.20;89.30
38398;DHT22;24179;52.094;4.408;2022-07-23T09:03:44;31.30;89.10
38398;DHT22;24179;52.094;4.408;2022-07-23T09:06:45;30.70;89.30
38398;DHT22;24179;52.094;4.408;2022-07-23T09:09:46;30.70;90.40
38398;DHT22;24179;52.094;4.408;2022-07-23T09:12:46;31.30;89.50
38398;DHT22;24179;52.094;4.408;2022-07-23T09:15:49;31.00;87.60
38398;DHT22;24179;52.094;4.408;2022-07-23T09:21:54;31.80;87.80
38398;DHT22;24179;52.094;4.408;2022-07-23T09:25:15;31.20;87.50
38398;DHT22;24179;52.094;4.408;2022-07-23T09:28:16;30.80;88.20
38398;DHT22;24179;52.094;4.408;2022-07-23T09:31:16;31.10;87.90
38398;DHT22;24179;52.094;4.408;2022-07-23T09:34:23;31.40;87.30
38398;DHT22;24179;52.094;4.408;2022-07-23T09:37:24;31.40;88.10
38398;DHT22;24179;52.094;4.408;2022-07-23T09:40:24;32.40;87.30
38398;DHT22;24179;52.094;4.408;2022-07-23T09:43:27;32.20;86.10
38398;DHT22;24179;52.094;4.408;2022-07-23T09:46:29;31.50;85.10
38398;DHT22;24179;52.094;4.408;2022-07-23T09:49:29;30.50;85.70
38398;DHT22;24179;52.094;4.408;2022-07-23T09:52:33;30.20;86.20
38398;DHT22;24179;52.094;4.408;2022-07-23T09:55:35;29.60;87.90
38398;DHT22;24179;52.094;4.408;2022-07-23T09:58:39;29.50;88.20
38398;DHT22;24179;52.094;4.408;2022-07-23T10:01:46;30.20;88.00
38398;DHT22;24179;52.094;4.408;2022-07-23T10:04:47;30.70;86.00
38398;DHT22;24179;52.094;4.408;2022-07-23T10:07:48;30.90;85.70
38398;DHT22;24179;52.094;4.408;2022-07-23T10:10:51;31.20;86.70
38398;DHT22;24179;52.094;4.408;2022-07-23T10:13:53;32.00;84.50
38398;DHT22;24179;52.094;4.408;2022-07-23T10:17:02;32.00;85.10
38398;DHT22;24179;52.094;4.408;2022-07-23T10:20:04;32.60;84.30
38398;DHT22;24179;52.094;4.408;2022-07-23T10:23:17;32.70;81.60
38398;DHT22;24179;52.094;4.408;2022-07-23T10:26:38;32.20;81.10
38398;DHT22;24179;52.094;4.408;2022-07-23T10:29:55;32.30;82.10
38398;DHT22;24179;52.094;4.408;2022-07-23T10:39:33;32.90;82.20
38398;DHT22;24179;52.094;4.408;2022-07-23T10:42:35;32.80;80.70
38398;DHT22;24179;52.094;4.408;2022-07-23T10:45:36;32.50;80.10
38398;DHT22;24179;52.094;4.408;2022-07-23T10:48:37;32.30;80.40
38398;DHT22;24179;52.094;4.408;2022-07-23T10:51:38;32.00;81.80
38398;DHT22;24179;52.094;4.408;2022-07-23T10:54:46;32.80;81.90
38398;DHT22;24179;52.094;4.408;2022-07-23T10:57:50;33.40;80.80
38398;DHT22;24179;52.094;4.408;2022-07-23T11:00:51;33.30;79.90
38398;DHT22;24179;52.094;4.408;2022-07-23T11:03:58;33.60;80.60
38398;DHT22;24179;52.094;4.408;2022-07-23T11:10:00;33.80;80.20
38398;DHT22;24179;52.094;4.408;2022-07-23T11:13:31;33.40;78.80
38398;DHT22;24179;52.094;4.408;2022-07-23T11:16:46;32.90;80.60
38398;DHT22;24179;52.094;4.408;2022-07-23T11:23:11;33.00;78.80
38398;DHT22;24179;52.094;4.408;2022-07-23T11:29:42;32.60;77.70
38398;DHT22;24179;52.094;4.408;2022-07-23T11:32:43;32.50;78.90
38398;DHT22;24179;52.094;4.408;2022-07-23T11:35:46;33.20;78.00
38398;DHT22;24179;52.094;4.408;2022-07-23T11:38:50;33.40;78.70
38398;DHT22;24179;52.094;4.408;2022-07-23T11:41:53;33.10;77.50
38398;DHT22;24179;52.094;4.408;2022-07-23T11:44:53;32.20;79.60
38398;DHT22;24179;52.094;4.408;2022-07-23T11:47:54;30.40;81.40
38398;DHT22;24179;52.094;4.408;2022-07-23T11:50:56;29.30;85.40
38398;DHT22;24179;52.094;4.408;2022-07-23T11:54:05;29.50;86.80
38398;DHT22;24179;52.094;4.408;2022-07-23T11:57:06;29.70;86.10
38398;DHT22;24179;52.094;4.408;2022-07-23T12:00:19;29.90;85.70
38398;DHT22;24179;52.094;4.408;2022-07-23T12:03:20;31.20;86.90
38398;DHT22;24179;52.094;4.408;2022-07-23T12:06:21;31.80;83.40
38398;DHT22;24179;52.094;4.408;2022-07-23T12:09:22;31.10;84.30
38398;DHT22;24179;52.094;4.408;2022-07-23T12:12:23;30.20;85.40
38398;DHT22;24179;52.094;4.408;2022-07-23T12:15:34;29.90;87.20
38398;DHT22;24179;52.094;4.408;2022-07-23T12:18:37;29.80;87.30
38398;DHT22;24179;52.094;4.408;2022-07-23T12:21:38;29.10;87.60
38398;DHT22;24179;52.094;4.408;2022-07-23T12:25:00;29.30;88.10
38398;DHT22;24179;52.094;4.408;2022-07-23T12:31:06;29.90;89.60
38398;DHT22;24179;52.094;4.408;2022-07-23T12:34:14;31.60;85.70
38398;DHT22;24179;52.094;4.408;2022-07-23T12:37:34;32.00;84.90
38398;DHT22;24179;52.094;4.408;2022-07-23T12:40:46;32.10;84.40
38398;DHT22;24179;52.094;4.408;2022-07-23T12:43:47;31.30;86.40
38398;DHT22;24179;52.094;4.408;2022-07-23T12:46:52;31.30;87.00
38398;DHT22;24179;52.094;4.408;2022-07-23T12:49:53;32.20;85.10
38398;DHT22;24179;52.094;4.408;2022-07-23T12:53:04;32.20;83.70
38398;DHT22;24179;52.094;4.408;2022-07-23T12:56:08;31.50;84.20
38398;DHT22;24179;52.094;4.408;2022-07-23T12:59:13;30.30;85.30
38398;DHT22;24179;52.094;4.408;2022-07-23T13:02:16;29.50;85.40
38398;DHT22;24179;52.094;4.408;2022-07-23T13:05:17;29.40;86.40
38398;DHT22;24179;52.094;4.408;2022-07-23T13:08:18;29.70;85.60
38398;DHT22;24179;52.094;4.408;2022-07-23T13:11:19;29.50;86.60
38398;DHT22;24179;52.094;4.408;2022-07-23T13:14:20;29.20;86.00
38398;DHT22;24179;52.094;4.408;2022-07-23T13:17:20;29.70;86.70
38398;DHT22;24179;52.094;4.408;2022-07-23T13:20:22;30.70;87.10
38398;DHT22;24179;52.094;4.408;2022-07-23T13:23:23;30.70;84.80
38398;DHT22;24179;52.094;4.408;2022-07-23T13:26:24;30.90;84.70
38398;DHT22;24179;52.094;4.408;2022-07-23T13:29:25;31.30;86.00
38398;DHT22;24179;52.094;4.408;2022-07-23T13:32:26;32.00;84.80
38398;DHT22;24179;52.094;4.408;2022-07-23T13:35:27;32.00;83.10
38398;DHT22;24179;52.094;4.408;2022-07-23T13:38:27;32.10;83.20
38398;DHT22;24179;52.094;4.408;2022-07-23T13:41:28;32.10;83.70
38398;DHT22;24179;52.094;4.408;2022-07-23T13:44:29;32.40;83.60
38398;DHT22;24179;52.094;4.408;2022-07-23T13:47:29;32.30;83.90
38398;DHT22;24179;52.094;4.408;2022-07-23T13:50:30;32.50;82.20
38398;DHT22;24179;52.094;4.408;2022-07-23T13:53:31;32.00;81.30
38398;DHT22;24179;52.094;4.408;2022-07-23T13:56:31;31.00;81.70
38398;DHT22;24179;52.094;4.408;2022-07-23T13:59:32;31.10;84.30
38398;DHT22;24179;52.094;4.408;2022-07-23T14:02:33;31.30;82.50
38398;DHT22;24179;52.094;4.408;2022-07-23T14:05:33;31.90;82.40
38398;DHT22;24179;52.094;4.408;2022-07-23T14:08:34;31.40;81.80
38398;DHT22;24179;52.094;4.408;2022-07-23T14:11:35;31.80;83.70
38398;DHT22;24179;52.094;4.408;2022-07-23T14:14:35;31.50;82.40
38398;DHT22;24179;52.094;4.408;2022-07-23T14:17:37;32.00;82.70
38398;DHT22;24179;52.094;4.408;2022-07-23T14:20:38;32.20;82.40
38398;DHT22;24179;52.094;4.408;2022-07-23T14:23:39;32.10;82.90
38398;DHT22;24179;52.094;4.408;2022-07-23T14:26:40;31.60;82.20
38398;DHT22;24179;52.094;4.408;2022-07-23T14:29:40;32.30;81.80
38398;DHT22;24179;52.094;4.408;2022-07-23T14:32:41;32.60;82.90
38398;DHT22;24179;52.094;4.408;2022-07-23T14:35:42;32.20;80.20
38398;DHT22;24179;52.094;4.408;2022-07-23T14:38:43;32.30;82.30
38398;DHT22;24179;52.094;4.408;2022-07-23T14:41:44;32.40;81.20
38398;DHT22;24179;52.094;4.408;2022-07-23T14:44:44;32.00;80.70
38398;DHT22;24179;52.094;4.408;2022-07-23T14:47:46;32.30;82.10
38398;DHT22;24179;52.094;4.408;2022-07-23T14:50:47;32.90;81.50
38398;DHT22;24179;52.094;4.408;2022-07-23T14:53:48;33.60;79.80
38398;DHT22;24179;52.094;4.408;2022-07-23T14:56:48;34.10;80.30
38398;DHT22;24179;52.094;4.408;2022-07-23T14:59:49;34.70;79.60
38398;DHT22;24179;52.094;4.408;2022-07-23T15:02:50;34.50;79.10
38398;DHT22;24179;52.094;4.408;2022-07-23T15:05:51;34.70;77.40
38398;DHT22;24179;52.094;4.408;2022-07-23T15:08:52;34.20;76.40
38398;DHT22;24179;52.094;4.408;2022-07-23T15:11:52;33.80;77.30
38398;DHT22;24179;52.094;4.408;2022-07-23T15:14:53;33.30;77.70
38398;DHT22;24179;52.094;4.408;2022-07-23T15:17:53;32.70;78.70
38398;DHT22;24179;52.094;4.408;2022-07-23T15:20:54;33.00;79.20
38398;DHT22;24179;52.094;4.408;2022-07-23T15:23:56;33.70;79.20
38398;DHT22;24179;52.094;4.408;2022-07-23T15:26:59;33.80;78.40
38398;DHT22;24179;52.094;4.408;2022-07-23T15:29:59;33.80;78.00
38398;DHT22;24179;52.094;4.408;2022-07-23T15:33:00;33.80;77.90
38398;DHT22;24179;52.094;4.408;2022-07-23T15:36:01;34.00;78.40
38398;DHT22;24179;52.094;4.408;2022-07-23T15:39:02;33.40;78.20
38398;DHT22;24179;52.094;4.408;2022-07-23T15:42:03;34.00;78.30
38398;DHT22;24179;52.094;4.408;2022-07-23T15:45:04;34.00;77.40
38398;DHT22;24179;52.094;4.408;2022-07-23T15:48:05;33.90;76.30
38398;DHT22;24179;52.094;4.408;2022-07-23T15:51:06;33.90;77.70
38398;DHT22;24179;52.094;4.408;2022-07-23T15:54:06;34.00;77.60
38398;DHT22;24179;52.094;4.408;2022-07-23T15:57:07;34.10;77.10
38398;DHT22;24179;52.094;4.408;2022-07-23T16:00:08;34.50;77.60
38398;DHT22;24179;52.094;4.408;2022-07-23T16:03:09;34.90;76.10
38398;DHT22;24179;52.094;4.408;2022-07-23T16:06:10;35.00;76.70
38398;DHT22;24179;52.094;4.408;2022-07-23T16:09:11;34.70;76.70
38398;DHT22;24179;52.094;4.408;2022-07-23T16:12:12;34.10;76.90
38398;DHT22;24179;52.094;4.408;2022-07-23T16:15:13;34.00;77.00
38398;DHT22;24179;52.094;4.408;2022-07-23T16:18:13;33.40;77.40
38398;DHT22;24179;52.094;4.408;2022-07-23T16:21:14;33.00;77.90
38398;DHT22;24179;52.094;4.408;2022-07-23T16:24:14;32.40;78.40
38398;DHT22;24179;52.094;4.408;2022-07-23T16:27:15;33.00;79.20
38398;DHT22;24179;52.094;4.408;2022-07-23T16:30:16;33.60;78.10
38398;DHT22;24179;52.094;4.408;2022-07-23T16:33:16;33.60;77.30
38398;DHT22;24179;52.094;4.408;2022-07-23T16:36:18;34.00;77.60
38398;DHT22;24179;52.094;4.408;2022-07-23T16:39:19;33.80;77.30
38398;DHT22;24179;52.094;4.408;2022-07-23T16:42:20;33.30;78.00
38398;DHT22;24179;52.094;4.408;2022-07-23T16:45:21;33.20;78.50
38398;DHT22;24179;52.094;4.408;2022-07-23T16:48:21;33.40;78.40
38398;DHT22;24179;52.094;4.408;2022-07-23T16:51:22;33.50;78.00
38398;DHT22;24179;52.094;4.408;2022-07-23T16:54:24;32.90;77.90
38398;DHT22;24179;52.094;4.408;2022-07-23T16:57:24;32.20;78.70
38398;DHT22;24179;52.094;4.408;2022-07-23T17:00:25;31.20;80.10
38398;DHT22;24179;52.094;4.408;2022-07-23T17:03:25;30.10;81.60
38398;DHT22;24179;52.094;4.408;2022-07-23T17:06:28;29.10;84.00
38398;DHT22;24179;52.094;4.408;2022-07-23T17:09:29;28.40;85.20
38398;DHT22;24179;52.094;4.408;2022-07-23T17:12:30;27.80;87.00
38398;DHT22;24179;52.094;4.408;2022-07-23T17:15:31;27.50;85.90
38398;DHT22;24179;52.094;4.408;2022-07-23T17:18:31;27.00;88.10
38398;DHT22;24179;52.094;4.408;2022-07-23T17:21:32;26.90;88.10
38398;DHT22;24179;52.094;4.408;2022-07-23T17:24:33;26.80;88.50
38398;DHT22;24179;52.094;4.408;2022-07-23T17:27:34;26.80;90.00
38398;DHT22;24179;52.094;4.408;2022-07-23T17:30:34;26.60;90.20
38398;DHT22;24179;52.094;4.408;2022-07-23T17:33:35;26.30;90.70
38398;DHT22;24179;52.094;4.408;2022-07-23T17:36:37;26.10;90.80
38398;DHT22;24179;52.094;4.408;2022-07-23T17:39:38;25.80;91.30
38398;DHT22;24179;52.094;4.408;2022-07-23T17:42:39;25.60;92.20
38398;DHT22;24179;52.094;4.408;2022-07-23T17:45:40;25.60;92.10
38398;DHT22;24179;52.094;4.408;2022-07-23T17:48:40;25.40;91.80
38398;DHT22;24179;52.094;4.408;2022-07-23T17:51:41;25.20;92.40
38398;DHT22;24179;52.094;4.408;2022-07-23T17:54:43;25.10;92.10
38398;DHT22;24179;52.094;4.408;2022-07-23T17:57:44;25.00;92.90
38398;DHT22;24179;52.094;4.408;2022-07-23T18:00:45;24.80;92.90
38398;DHT22;24179;52.094;4.408;2022-07-23T18:03:46;24.70;93.20
38398;DHT22;24179;52.094;4.408;2022-07-23T18:06:47;24.60;93.30
38398;DHT22;24179;52.094;4.408;2022-07-23T18:09:48;24.50;93.20
38398;DHT22;24179;52.094;4.408;2022-07-23T18:12:49;24.40;94.10
38398;DHT22;24179;52.094;4.408;2022-07-23T18:15:49;24.30;94.30
38398;DHT22;24179;52.094;4.408;2022-07-23T18:18:50;24.30;95.00
38398;DHT22;24179;52.094;4.408;2022-07-23T18:21:51;24.10;95.00
38398;DHT22;24179;52.094;4.408;2022-07-23T18:24:51;24.10;95.30
38398;DHT22;24179;52.094;4.408;2022-07-23T18:27:52;24.10;95.60
38398;DHT22;24179;52.094;4.408;2022-07-23T18:30:52;24.10;96.40
38398;DHT22;24179;52.094;4.408;2022-07-23T18:33:53;23.90;96.60
38398;DHT22;24179;52.094;4.408;2022-07-23T18:36:54;23.80;97.00
38398;DHT22;24179;52.094;4.408;2022-07-23T18:39:55;23.80;97.10
38398;DHT22;24179;52.094;4.408;2022-07-23T18:42:55;23.60;97.70
38398;DHT22;24179;52.094;4.408;2022-07-23T18:45:59;23.60;98.20
38398;DHT22;24179;52.094;4.408;2022-07-23T18:49:02;23.40;98.80
38398;DHT22;24179;52.094;4.408;2022-07-23T18:52:03;23.30;99.40
38398;DHT22;24179;52.094;4.408;2022-07-23T18:55:04;23.20;99.80
38398;DHT22;24179;52.094;4.408;2022-07-23T18:58:06;23.10;99.90
38398;DHT22;24179;52.094;4.408;2022-07-23T19:01:07;22.90;99.90
38398;DHT22;24179;52.094;4.408;2022-07-23T19:04:08;22.80;99.90
38398;DHT22;24179;52.094;4.408;2022-07-23T19:07:08;22.70;99.90
38398;DHT22;24179;52.094;4.408;2022-07-23T19:10:09;22.60;99.90
38398;DHT22;24179;52.094;4.408;2022-07-23T19:13:10;22.50;99.90
38398;DHT22;24179;52.094;4.408;2022-07-23T19:16:10;22.40;99.90
38398;DHT22;24179;52.094;4.408;2022-07-23T19:19:11;22.30;99.90
38398;DHT22;24179;52.094;4.408;2022-07-23T19:22:12;22.30;99.90
38398;DHT22;24179;52.094;4.408;2022-07-23T19:25:13;22.20;99.90
38398;DHT22;24179;52.094;4.408;2022-07-23T19:28:14;22.10;99.90